Ivoryton, Connecticut
Current Conditions -  °F | °C
As of 1:55 PM on Thursday 23 Oct 2014 (Local Time) from KSNC Reporting Station
Haze Haze  
Wind Chill: 54°   Ceiling: 1200
Heat Index: 54°   Visibility: 5mi
Dew Point: 50°   Wind: 15mph
Humidity: 88%   Direction: 350°N
Pressure: 29.61"   Gusts: 24mph
Location:  41.35°N, 72.44°W
Report Text: KSNC 231755Z AUTO 35013G21KT 020V360 5SM BR OVC012 12/10 A2961 RMK AO2
Loading
Personal Weather Stations






























Interactive Weather Map
Tropical Storm Tracking
New forecast layout! Learn more

10-Day Weather Forecast

Advertisements
Track Severe Weather on mobile